createdAt,value
2022-10-03T00:00:06.771Z,1005.79
2022-10-03T00:01:06.816Z,1005.79
2022-10-03T00:02:06.789Z,1005.80
2022-10-03T00:03:06.827Z,1005.79
2022-10-03T00:04:06.723Z,1005.83
2022-10-03T00:05:07.794Z,1005.79
2022-10-03T00:06:06.744Z,1005.80
2022-10-03T00:07:06.707Z,1005.79
2022-10-03T00:08:06.691Z,1005.86
2022-10-03T00:09:06.675Z,1005.86
2022-10-03T00:10:06.697Z,1005.92
2022-10-03T00:11:06.658Z,1005.91
2022-10-03T00:12:06.645Z,1005.90
2022-10-03T00:13:06.638Z,1005.89
2022-10-03T00:14:06.626Z,1005.87
2022-10-03T00:15:06.619Z,1005.89
2022-10-03T00:16:06.712Z,1005.89
2022-10-03T00:17:06.584Z,1005.87
2022-10-03T00:18:06.602Z,1005.84
2022-10-03T00:19:06.565Z,1005.90
2022-10-03T00:20:06.575Z,1005.86
2022-10-03T00:21:06.575Z,1005.88
2022-10-03T00:22:06.554Z,1005.84
2022-10-03T00:23:06.718Z,1005.88
2022-10-03T00:24:06.507Z,1005.88
2022-10-03T00:25:06.490Z,1005.86
2022-10-03T00:26:06.467Z,1005.89
2022-10-03T00:27:06.477Z,1005.88
2022-10-03T00:28:06.527Z,1005.90
2022-10-03T00:29:06.436Z,1005.90
2022-10-03T00:30:06.430Z,1005.90
2022-10-03T00:31:06.490Z,1005.93
2022-10-03T00:32:06.415Z,1005.87
2022-10-03T00:33:06.446Z,1005.90
2022-10-03T00:34:06.446Z,1005.94
2022-10-03T00:35:06.406Z,1005.89
2022-10-03T00:36:06.367Z,1005.89
2022-10-03T00:37:06.388Z,1005.91
2022-10-03T00:38:06.340Z,1005.94
2022-10-03T00:39:06.331Z,1005.97
2022-10-03T00:40:06.367Z,1005.94
2022-10-03T00:41:06.318Z,1005.89
2022-10-03T00:42:06.320Z,1005.88
2022-10-03T00:43:06.289Z,1005.93
2022-10-03T00:44:06.317Z,1005.91
2022-10-03T00:45:06.265Z,1005.91
2022-10-03T00:46:06.353Z,1005.93
2022-10-03T00:47:06.351Z,1005.92
2022-10-03T00:48:06.251Z,1005.94
2022-10-03T00:49:06.212Z,1005.90
2022-10-03T00:50:06.220Z,1005.93
2022-10-03T00:51:06.260Z,1005.93
2022-10-03T00:52:06.182Z,1005.93
2022-10-03T00:53:06.206Z,1005.90
2022-10-03T00:54:06.151Z,1005.86
2022-10-03T00:55:06.351Z,1005.86
2022-10-03T00:56:06.132Z,1005.96
2022-10-03T00:57:06.152Z,1005.95
2022-10-03T00:58:06.142Z,1005.92
2022-10-03T00:59:06.101Z,1005.93
2022-10-03T01:00:06.083Z,1005.94
2022-10-03T01:01:06.107Z,1005.96
2022-10-03T01:02:06.089Z,1005.91
2022-10-03T01:03:06.094Z,1005.93
2022-10-03T01:04:06.045Z,1005.94
2022-10-03T01:05:06.079Z,1005.96
2022-10-03T01:06:06.035Z,1006.01
2022-10-03T01:07:06.973Z,1006.00
2022-10-03T01:08:06.023Z,1006.03
2022-10-03T01:09:06.022Z,1006.04
2022-10-03T01:10:05.984Z,1006.03
2022-10-03T01:11:05.995Z,1006.12
2022-10-03T01:12:05.947Z,1006.08
2022-10-03T01:13:05.928Z,1006.13
2022-10-03T01:14:05.943Z,1006.13
2022-10-03T01:15:05.937Z,1006.16
2022-10-03T01:16:05.992Z,1006.22
2022-10-03T01:17:05.896Z,1006.16
2022-10-03T01:18:05.873Z,1006.18
2022-10-03T01:19:05.868Z,1006.14
2022-10-03T01:20:05.894Z,1006.15
2022-10-03T01:21:05.837Z,1006.20
2022-10-03T01:22:05.862Z,1006.22
2022-10-03T01:23:05.826Z,1006.20
2022-10-03T01:24:05.796Z,1006.22
2022-10-03T01:25:05.827Z,1006.23
2022-10-03T01:26:05.777Z,1006.23
2022-10-03T01:27:05.815Z,1006.27
2022-10-03T01:28:06.554Z,1006.23
2022-10-03T01:29:05.766Z,1006.23
2022-10-03T01:30:05.743Z,1006.27
2022-10-03T01:31:05.821Z,1006.26
2022-10-03T01:32:05.714Z,1006.26
2022-10-03T01:33:05.700Z,1006.33
2022-10-03T01:34:05.690Z,1006.28
2022-10-03T01:35:05.707Z,1006.26
2022-10-03T01:36:05.663Z,1006.24
2022-10-03T01:37:05.705Z,1006.21
2022-10-03T01:38:05.667Z,1006.32
2022-10-03T01:39:05.627Z,1006.27
2022-10-03T01:40:05.646Z,1006.26
2022-10-03T01:41:05.606Z,1006.24
2022-10-03T01:42:05.653Z,1006.26
2022-10-03T01:43:05.601Z,1006.31
2022-10-03T01:44:05.568Z,1006.37
2022-10-03T01:45:05.606Z,1006.34
2022-10-03T01:46:05.579Z,1006.33
2022-10-03T01:47:05.552Z,1006.32
2022-10-03T01:48:05.538Z,1006.35
2022-10-03T01:49:05.521Z,1006.42
2022-10-03T01:50:05.497Z,1006.35
2022-10-03T01:51:05.490Z,1006.34
2022-10-03T01:52:05.491Z,1006.33
2022-10-03T01:53:05.474Z,1006.46
2022-10-03T01:54:05.471Z,1006.41
2022-10-03T01:55:05.455Z,1006.48
2022-10-03T01:56:05.441Z,1006.47
2022-10-03T01:57:05.410Z,1006.47
2022-10-03T01:58:05.422Z,1006.42
2022-10-03T01:59:05.450Z,1006.50
2022-10-03T02:00:05.390Z,1006.46
2022-10-03T02:01:05.413Z,1006.46
2022-10-03T02:02:05.414Z,1006.43
2022-10-03T02:03:05.352Z,1006.47
2022-10-03T02:04:05.339Z,1006.51
2022-10-03T02:05:05.346Z,1006.50
2022-10-03T02:06:05.326Z,1006.46
2022-10-03T02:07:05.295Z,1006.47
2022-10-03T02:08:05.283Z,1006.48
2022-10-03T02:09:05.274Z,1006.53
2022-10-03T02:10:05.262Z,1006.54
2022-10-03T02:11:05.282Z,1006.53
2022-10-03T02:12:05.299Z,1006.54
2022-10-03T02:13:05.225Z,1006.55
2022-10-03T02:14:05.246Z,1006.54
2022-10-03T02:15:05.199Z,1006.54
2022-10-03T02:16:05.265Z,1006.55
2022-10-03T02:17:05.422Z,1006.58
2022-10-03T02:18:05.193Z,1006.58
2022-10-03T02:19:05.165Z,1006.58
2022-10-03T02:20:05.143Z,1006.56
2022-10-03T02:21:05.153Z,1006.56
2022-10-03T02:22:05.115Z,1006.57
2022-10-03T02:23:05.134Z,1006.66
2022-10-03T02:24:05.105Z,1006.62
2022-10-03T02:25:05.105Z,1006.68
2022-10-03T02:26:05.076Z,1006.67
2022-10-03T02:27:05.091Z,1006.66
2022-10-03T02:28:05.074Z,1006.67
2022-10-03T02:29:05.055Z,1006.67
2022-10-03T02:30:05.025Z,1006.71
2022-10-03T02:31:05.081Z,1006.68
2022-10-03T02:32:05.020Z,1006.69
2022-10-03T02:33:04.995Z,1006.68
2022-10-03T02:34:05.019Z,1006.67
2022-10-03T02:35:04.968Z,1006.69
2022-10-03T02:36:04.956Z,1006.68
2022-10-03T02:37:04.967Z,1006.69
2022-10-03T02:38:04.955Z,1006.69
2022-10-03T02:39:04.959Z,1006.70
2022-10-03T02:40:05.039Z,1006.74
2022-10-03T02:41:04.887Z,1006.74
2022-10-03T02:42:04.908Z,1006.75
2022-10-03T02:43:04.896Z,1006.69
2022-10-03T02:44:04.880Z,1006.69
2022-10-03T02:45:04.927Z,1006.74
2022-10-03T02:46:05.039Z,1006.71
2022-10-03T02:47:04.847Z,1006.67
2022-10-03T02:48:30.251Z,1006.69
2022-10-03T02:49:05.860Z,1006.70
2022-10-03T02:50:04.788Z,1006.72
2022-10-03T02:51:04.787Z,1006.70
2022-10-03T02:52:04.841Z,1006.68
2022-10-03T02:53:04.760Z,1006.62
2022-10-03T02:54:04.777Z,1006.67
2022-10-03T02:55:04.750Z,1006.79
2022-10-03T02:56:04.718Z,1006.76
2022-10-03T02:57:04.710Z,1006.72
2022-10-03T02:58:04.709Z,1006.67
2022-10-03T02:59:04.686Z,1006.74
2022-10-03T03:00:04.673Z,1006.74
2022-10-03T03:01:04.725Z,1006.67
2022-10-03T03:02:04.684Z,1006.72
2022-10-03T03:03:04.727Z,1006.73
2022-10-03T03:04:04.629Z,1006.80
2022-10-03T03:05:04.695Z,1006.81
2022-10-03T03:06:04.608Z,1006.77
2022-10-03T03:07:04.600Z,1006.80
2022-10-03T03:08:04.629Z,1006.81
2022-10-03T03:09:04.582Z,1006.86
2022-10-03T03:10:04.553Z,1006.88
2022-10-03T03:11:04.541Z,1006.90
2022-10-03T03:12:04.530Z,1006.80
2022-10-03T03:13:04.521Z,1006.85
2022-10-03T03:14:04.570Z,1006.86
2022-10-03T03:15:04.511Z,1006.86
2022-10-03T03:16:04.532Z,1006.85
2022-10-03T03:17:04.473Z,1006.91
2022-10-03T03:18:04.456Z,1006.89
2022-10-03T03:19:04.462Z,1006.84
2022-10-03T03:20:04.467Z,1006.85
2022-10-03T03:21:04.435Z,1006.89
2022-10-03T03:22:04.427Z,1006.94
2022-10-03T03:23:04.422Z,1006.91
2022-10-03T03:24:04.400Z,1006.91
2022-10-03T03:25:04.403Z,1007.02
2022-10-03T03:26:04.393Z,1006.93
2022-10-03T03:27:04.388Z,1006.96
2022-10-03T03:28:04.425Z,1006.98
2022-10-03T03:29:04.332Z,1006.97
2022-10-03T03:30:04.323Z,1006.98
2022-10-03T03:31:04.343Z,1006.96
2022-10-03T03:32:04.376Z,1006.99
2022-10-03T03:33:04.293Z,1006.96
2022-10-03T03:34:04.289Z,1006.99
2022-10-03T03:35:04.264Z,1007.02
2022-10-03T03:36:04.266Z,1007.05
2022-10-03T03:37:04.296Z,1007.01
2022-10-03T03:38:04.216Z,1006.98
2022-10-03T03:39:04.243Z,1007.02
2022-10-03T03:40:04.203Z,1006.99
2022-10-03T03:41:04.195Z,1006.97
2022-10-03T03:42:04.209Z,1006.96
2022-10-03T03:43:04.170Z,1007.05
2022-10-03T03:44:04.157Z,1006.90
2022-10-03T03:45:04.155Z,1006.98
2022-10-03T03:46:04.162Z,1006.99
2022-10-03T03:47:04.139Z,1006.98
2022-10-03T03:48:04.138Z,1007.01
2022-10-03T03:49:04.106Z,1007.07
2022-10-03T03:50:04.077Z,1007.07
2022-10-03T03:51:04.138Z,1006.98
2022-10-03T03:52:04.066Z,1007.01
2022-10-03T03:53:04.048Z,1007.02
2022-10-03T03:54:04.055Z,1007.01
2022-10-03T03:55:04.027Z,1007.10
2022-10-03T03:56:04.018Z,1007.07
2022-10-03T03:57:04.008Z,1007.14
2022-10-03T03:58:03.993Z,1007.18
2022-10-03T03:59:04.000Z,1007.12
2022-10-03T04:00:03.981Z,1007.10
2022-10-03T04:01:04.027Z,1007.11
2022-10-03T04:02:03.968Z,1007.11
2022-10-03T04:03:03.947Z,1007.11
2022-10-03T04:04:03.918Z,1007.11
2022-10-03T04:05:03.938Z,1007.09
2022-10-03T04:06:03.898Z,1007.03
2022-10-03T04:07:03.890Z,1007.05
2022-10-03T04:08:03.891Z,1007.07
2022-10-03T04:09:03.857Z,1007.05
2022-10-03T04:10:03.872Z,1007.08
2022-10-03T04:11:03.832Z,1007.06
2022-10-03T04:12:03.844Z,1007.10
2022-10-03T04:13:03.810Z,1007.07
2022-10-03T04:14:03.825Z,1007.09
2022-10-03T04:15:03.790Z,1007.14
2022-10-03T04:16:03.859Z,1007.11
2022-10-03T04:17:03.772Z,1007.14
2022-10-03T04:18:03.760Z,1007.10
2022-10-03T04:19:03.763Z,1007.16
2022-10-03T04:20:03.730Z,1007.18
2022-10-03T04:21:03.720Z,1007.15
2022-10-03T04:22:03.736Z,1007.15
2022-10-03T04:23:03.692Z,1007.20
2022-10-03T04:24:03.681Z,1007.22
2022-10-03T04:25:03.692Z,1007.15
2022-10-03T04:26:03.670Z,1007.25
2022-10-03T04:27:03.688Z,1007.25
2022-10-03T04:28:03.741Z,1007.21
2022-10-03T04:29:03.621Z,1007.25
2022-10-03T04:30:03.632Z,1007.26
2022-10-03T04:31:03.601Z,1007.28
2022-10-03T04:32:03.701Z,1007.28
2022-10-03T04:33:03.604Z,1007.22
2022-10-03T04:34:03.564Z,1007.31
2022-10-03T04:35:03.565Z,1007.35
2022-10-03T04:36:03.573Z,1007.26
2022-10-03T04:37:03.604Z,1007.25
2022-10-03T04:38:03.573Z,1007.26
2022-10-03T04:39:03.535Z,1007.19
2022-10-03T04:40:03.520Z,1007.24
2022-10-03T04:41:03.492Z,1007.23
2022-10-03T04:42:03.475Z,1007.25
2022-10-03T04:43:03.467Z,1007.24
2022-10-03T04:44:03.454Z,1007.23
2022-10-03T04:45:03.565Z,1007.17
2022-10-03T04:46:03.489Z,1007.21
2022-10-03T04:47:03.427Z,1007.21
2022-10-03T04:48:03.404Z,1007.20
2022-10-03T04:49:03.385Z,1007.15
2022-10-03T04:50:03.409Z,1007.17
2022-10-03T04:51:03.416Z,1007.18
2022-10-03T04:52:03.373Z,1007.16
2022-10-03T04:53:03.357Z,1007.19
2022-10-03T04:54:03.397Z,1007.17
2022-10-03T04:55:03.355Z,1007.10
2022-10-03T04:56:03.305Z,1007.15
2022-10-03T04:57:03.344Z,1007.20
2022-10-03T04:58:05.309Z,1007.17
2022-10-03T04:59:03.275Z,1007.14
2022-10-03T05:00:03.269Z,1007.24
2022-10-03T05:01:03.273Z,1007.14
2022-10-03T05:02:03.337Z,1007.18
2022-10-03T05:03:03.228Z,1007.20
2022-10-03T05:04:03.237Z,1007.15
2022-10-03T05:05:03.211Z,1007.16
2022-10-03T05:06:03.198Z,1007.26
2022-10-03T05:07:03.200Z,1007.16
2022-10-03T05:08:03.222Z,1007.14
2022-10-03T05:09:03.170Z,1007.24
2022-10-03T05:10:07.274Z,1007.22
2022-10-03T05:11:04.148Z,1007.23
2022-10-03T05:12:03.144Z,1007.21
2022-10-03T05:13:03.170Z,1007.23
2022-10-03T05:14:03.109Z,1007.28
2022-10-03T05:15:03.125Z,1007.19
2022-10-03T05:16:03.107Z,1007.27
2022-10-03T05:17:03.112Z,1007.25
2022-10-03T05:18:03.067Z,1007.30
2022-10-03T05:19:03.070Z,1007.23
2022-10-03T05:20:03.051Z,1007.26
2022-10-03T05:21:03.047Z,1007.30
2022-10-03T05:22:03.037Z,1007.29
2022-10-03T05:23:03.008Z,1007.30
2022-10-03T05:24:03.146Z,1007.34
2022-10-03T05:25:02.986Z,1007.35
2022-10-03T05:26:32.274Z,1007.35
2022-10-03T05:27:03.960Z,1007.41
2022-10-03T05:28:03.062Z,1007.44
2022-10-03T05:29:02.941Z,1007.43
2022-10-03T05:30:02.941Z,1007.48
2022-10-03T05:31:02.923Z,1007.41
2022-10-03T05:32:02.935Z,1007.49
2022-10-03T05:33:06.284Z,1007.43
2022-10-03T05:34:03.894Z,1007.48
2022-10-03T05:35:02.871Z,1007.50
2022-10-03T05:36:02.891Z,1007.51
2022-10-03T05:37:02.852Z,1007.48
2022-10-03T05:38:02.822Z,1007.53
2022-10-03T05:39:02.826Z,1007.48
2022-10-03T05:40:02.815Z,1007.58
2022-10-03T05:41:02.792Z,1007.62
2022-10-03T05:42:21.566Z,1007.59
2022-10-03T05:43:03.773Z,1007.62
2022-10-03T05:44:02.790Z,1007.58
2022-10-03T05:45:02.755Z,1007.55
2022-10-03T05:46:02.779Z,1007.56
2022-10-03T05:47:02.762Z,1007.58
2022-10-03T05:48:02.714Z,1007.58
2022-10-03T05:49:02.716Z,1007.58
2022-10-03T05:50:05.668Z,1007.57
2022-10-03T05:51:03.714Z,1007.55
2022-10-03T05:52:02.694Z,1007.56
2022-10-03T05:53:02.700Z,1007.61
2022-10-03T05:54:02.658Z,1007.57
2022-10-03T05:55:02.630Z,1007.63
2022-10-03T05:56:02.634Z,1007.50
2022-10-03T05:57:02.607Z,1007.52
2022-10-03T05:58:02.607Z,1007.52
2022-10-03T05:59:02.606Z,1007.55
2022-10-03T06:00:02.627Z,1007.55
2022-10-03T06:01:02.600Z,1007.61
2022-10-03T06:02:02.585Z,1007.56
2022-10-03T06:03:02.639Z,1007.56
2022-10-03T06:04:05.860Z,1007.56
2022-10-03T06:05:02.798Z,1007.59
2022-10-03T06:06:02.532Z,1007.61
2022-10-03T06:07:02.518Z,1007.54
2022-10-03T06:08:02.492Z,1007.60
2022-10-03T06:09:02.481Z,1007.62
2022-10-03T06:10:02.456Z,1007.60
2022-10-03T06:11:02.497Z,1007.61
2022-10-03T06:12:02.468Z,1007.61
2022-10-03T06:13:02.446Z,1007.61
2022-10-03T06:14:02.411Z,1007.61
2022-10-03T06:15:02.420Z,1007.58
2022-10-03T06:16:02.486Z,1007.63
2022-10-03T06:17:02.389Z,1007.64
2022-10-03T06:18:02.372Z,1007.68
2022-10-03T06:19:02.361Z,1007.65
2022-10-03T06:20:02.348Z,1007.64
2022-10-03T06:21:02.339Z,1007.72
2022-10-03T06:22:02.373Z,1007.68
2022-10-03T06:23:05.706Z,1007.68
2022-10-03T06:24:02.305Z,1007.71
2022-10-03T06:25:02.302Z,1007.68
2022-10-03T06:26:02.279Z,1007.67
2022-10-03T06:27:02.270Z,1007.66
2022-10-03T06:28:02.361Z,1007.73
2022-10-03T06:29:02.244Z,1007.70
2022-10-03T06:30:02.241Z,1007.72
2022-10-03T06:31:02.252Z,1007.73
2022-10-03T06:32:02.208Z,1007.71
2022-10-03T06:33:02.247Z,1007.72
2022-10-03T06:34:02.183Z,1007.73
2022-10-03T06:35:02.171Z,1007.70
2022-10-03T06:36:02.168Z,1007.72
2022-10-03T06:37:02.153Z,1007.72
2022-10-03T06:38:02.142Z,1007.73
2022-10-03T06:39:02.143Z,1007.73
2022-10-03T06:40:06.255Z,1007.70
2022-10-03T06:41:03.117Z,1007.78
2022-10-03T06:42:02.125Z,1007.79
2022-10-03T06:43:02.833Z,1007.84
2022-10-03T06:44:02.116Z,1007.80
2022-10-03T06:45:02.094Z,1007.80
2022-10-03T06:46:02.110Z,1007.82
2022-10-03T06:47:02.055Z,1007.86
2022-10-03T06:48:02.055Z,1007.82
2022-10-03T06:49:02.025Z,1007.87
2022-10-03T06:50:02.023Z,1007.86
2022-10-03T06:51:02.032Z,1007.92
2022-10-03T06:52:02.015Z,1007.89
2022-10-03T06:53:01.987Z,1007.89
2022-10-03T06:54:02.052Z,1007.89
2022-10-03T06:55:02.208Z,1007.89
2022-10-03T06:56:01.942Z,1007.91
2022-10-03T06:57:01.934Z,1007.89
2022-10-03T06:58:01.916Z,1007.92
2022-10-03T06:59:01.910Z,1007.89
2022-10-03T07:00:01.918Z,1007.97
2022-10-03T07:01:01.992Z,1007.98
2022-10-03T07:02:01.913Z,1007.97
2022-10-03T07:03:01.904Z,1007.94
2022-10-03T07:04:01.859Z,1008.01
2022-10-03T07:05:01.835Z,1008.00
2022-10-03T07:06:01.894Z,1007.96
2022-10-03T07:07:01.797Z,1008.02
2022-10-03T07:08:01.807Z,1008.03
2022-10-03T07:09:01.803Z,1008.06
2022-10-03T07:10:01.777Z,1008.08
2022-10-03T07:11:01.796Z,1008.06
2022-10-03T07:12:01.798Z,1008.10
2022-10-03T07:13:01.741Z,1008.07
2022-10-03T07:14:01.753Z,1008.03
2022-10-03T07:15:01.731Z,1008.10
2022-10-03T07:16:26.068Z,1008.15
2022-10-03T07:17:02.800Z,1008.14
2022-10-03T07:18:01.704Z,1008.15
2022-10-03T07:19:01.691Z,1008.13
2022-10-03T07:20:01.689Z,1008.11
2022-10-03T07:21:01.681Z,1008.17
2022-10-03T07:22:01.670Z,1008.14
2022-10-03T07:23:01.695Z,1008.17
2022-10-03T07:24:01.619Z,1008.16
2022-10-03T07:25:01.611Z,1008.20
2022-10-03T07:26:01.599Z,1008.24
2022-10-03T07:27:01.591Z,1008.26
2022-10-03T07:28:01.661Z,1008.23
2022-10-03T07:29:01.580Z,1008.26
2022-10-03T07:30:01.551Z,1008.25
2022-10-03T07:31:01.605Z,1008.30
2022-10-03T07:32:01.533Z,1008.42
2022-10-03T07:33:01.503Z,1008.37
2022-10-03T07:34:01.511Z,1008.35
2022-10-03T07:35:01.523Z,1008.33
2022-10-03T07:36:01.491Z,1008.31
2022-10-03T07:37:01.474Z,1008.33
2022-10-03T07:38:01.442Z,1008.37
2022-10-03T07:39:01.468Z,1008.39
2022-10-03T07:40:01.462Z,1008.33
2022-10-03T07:41:01.443Z,1008.43
2022-10-03T07:42:01.405Z,1008.41
2022-10-03T07:43:01.416Z,1008.44
2022-10-03T07:44:01.438Z,1008.45
2022-10-03T07:45:01.375Z,1008.43
2022-10-03T07:46:01.354Z,1008.46
2022-10-03T07:47:01.362Z,1008.43
2022-10-03T07:48:01.343Z,1008.48
2022-10-03T07:49:01.321Z,1008.46
2022-10-03T07:50:01.329Z,1008.51
2022-10-03T07:51:01.304Z,1008.47
2022-10-03T07:52:01.286Z,1008.45
2022-10-03T07:53:01.345Z,1008.47
2022-10-03T07:54:01.262Z,1008.51
2022-10-03T07:55:01.245Z,1008.44
2022-10-03T07:56:04.758Z,1008.48
2022-10-03T07:57:02.268Z,1008.44
2022-10-03T07:58:01.373Z,1008.46
2022-10-03T07:59:01.272Z,1008.41
2022-10-03T08:00:01.244Z,1008.39
2022-10-03T08:01:01.229Z,1008.46
2022-10-03T08:02:01.254Z,1008.44
2022-10-03T08:03:01.274Z,1008.49
2022-10-03T08:04:01.297Z,1008.48
2022-10-03T08:05:01.136Z,1008.52
2022-10-03T08:06:01.165Z,1008.53
2022-10-03T08:07:01.105Z,1008.52
2022-10-03T08:08:01.106Z,1008.56
2022-10-03T08:09:01.194Z,1008.56
2022-10-03T08:10:01.109Z,1008.57
2022-10-03T08:11:01.076Z,1008.59
2022-10-03T08:12:01.103Z,1008.60
2022-10-03T08:13:01.065Z,1008.56
2022-10-03T08:14:01.027Z,1008.65
2022-10-03T08:15:01.138Z,1008.61
2022-10-03T08:16:01.086Z,1008.64
2022-10-03T08:17:01.111Z,1008.69
2022-10-03T08:18:00.989Z,1008.64
2022-10-03T08:19:01.011Z,1008.70
2022-10-03T08:20:00.962Z,1008.69
2022-10-03T08:21:00.998Z,1008.69
2022-10-03T08:22:00.938Z,1008.74
2022-10-03T08:23:00.981Z,1008.73
2022-10-03T08:24:00.969Z,1008.73
2022-10-03T08:25:02.919Z,1008.75
2022-10-03T08:26:00.950Z,1008.75
2022-10-03T08:27:01.039Z,1008.73
2022-10-03T08:28:00.913Z,1008.79
2022-10-03T08:29:00.899Z,1008.82
2022-10-03T08:30:00.852Z,1008.85
2022-10-03T08:31:00.864Z,1008.81
2022-10-03T08:32:00.821Z,1008.82
2022-10-03T08:33:00.849Z,1008.84
2022-10-03T08:34:00.876Z,1008.93
2022-10-03T08:35:00.965Z,1008.93
2022-10-03T08:36:00.766Z,1008.90
2022-10-03T08:37:00.760Z,1008.87
2022-10-03T08:38:00.764Z,1008.90
2022-10-03T08:39:00.787Z,1008.94
2022-10-03T08:40:00.733Z,1008.95
2022-10-03T08:41:00.761Z,1008.88
2022-10-03T08:42:00.693Z,1008.88
2022-10-03T08:43:00.689Z,1008.92
2022-10-03T08:44:00.706Z,1008.93
2022-10-03T08:45:00.722Z,1008.89
2022-10-03T08:46:00.753Z,1008.93
2022-10-03T08:47:00.694Z,1008.90
2022-10-03T08:48:00.624Z,1008.85
2022-10-03T08:49:00.614Z,1008.90
2022-10-03T08:50:05.024Z,1008.88
2022-10-03T08:51:00.646Z,1008.84
2022-10-03T08:52:01.697Z,1008.89
2022-10-03T08:53:00.671Z,1008.84
2022-10-03T08:54:00.554Z,1008.90
2022-10-03T08:55:00.588Z,1008.89
2022-10-03T08:56:00.547Z,1008.93
2022-10-03T08:57:00.555Z,1008.86
2022-10-03T08:58:00.706Z,1008.83
2022-10-03T08:59:00.555Z,1008.88
2022-10-03T09:00:00.497Z,1008.80
2022-10-03T09:01:00.528Z,1008.76
2022-10-03T09:02:00.567Z,1008.84
2022-10-03T09:03:28.629Z,1008.77
2022-10-03T09:04:01.446Z,1008.80
2022-10-03T09:05:00.427Z,1008.79
2022-10-03T09:06:00.438Z,1008.82
2022-10-03T09:07:17.901Z,1008.79
2022-10-03T09:08:01.399Z,1008.84
2022-10-03T09:09:00.380Z,1008.79
2022-10-03T09:10:00.380Z,1008.78
2022-10-03T09:11:00.366Z,1008.78
2022-10-03T09:12:00.415Z,1008.82
2022-10-03T09:13:00.357Z,1008.83
2022-10-03T09:14:00.329Z,1008.86
2022-10-03T09:15:00.328Z,1008.82
2022-10-03T09:16:00.334Z,1008.84
2022-10-03T09:17:00.290Z,1008.82
2022-10-03T09:18:00.329Z,1008.87
2022-10-03T09:19:00.288Z,1008.88
2022-10-03T09:20:00.260Z,1008.83
2022-10-03T09:21:00.267Z,1008.82
2022-10-03T09:22:00.247Z,1008.83
2022-10-03T09:23:00.230Z,1008.81
2022-10-03T09:24:00.239Z,1008.78
2022-10-03T09:25:00.201Z,1008.80
2022-10-03T09:26:00.199Z,1008.76
2022-10-03T09:27:00.172Z,1008.75
2022-10-03T09:28:00.248Z,1008.77
2022-10-03T09:29:00.168Z,1008.82
2022-10-03T09:30:00.180Z,1008.81
2022-10-03T09:31:00.180Z,1008.76
2022-10-03T09:32:00.112Z,1008.77
2022-10-03T09:33:00.147Z,1008.76
2022-10-03T09:34:00.105Z,1008.74
2022-10-03T09:35:03.664Z,1008.83
2022-10-03T09:36:01.074Z,1008.80
2022-10-03T09:37:00.063Z,1008.85
2022-10-03T09:38:00.059Z,1008.85
2022-10-03T09:39:00.155Z,1008.82
2022-10-03T09:40:00.883Z,1008.81
2022-10-03T09:41:00.052Z,1008.84
2022-10-03T09:42:00.004Z,1008.77
2022-10-03T09:42:59.984Z,1008.80
2022-10-03T09:44:00.057Z,1008.86
2022-10-03T09:44:59.965Z,1008.84
2022-10-03T09:45:59.980Z,1008.86
2022-10-03T09:47:00.009Z,1008.91
2022-10-03T09:47:59.977Z,1008.83
2022-10-03T09:48:59.925Z,1008.82
2022-10-03T09:49:59.945Z,1008.87
2022-10-03T09:50:59.899Z,1008.82
2022-10-03T09:51:59.945Z,1008.89
2022-10-03T09:52:59.961Z,1008.83
2022-10-03T09:53:59.931Z,1008.83
2022-10-03T09:54:59.847Z,1008.84
2022-10-03T09:55:59.849Z,1008.84
2022-10-03T09:56:59.895Z,1008.78
2022-10-03T09:57:59.828Z,1008.83
2022-10-03T09:58:59.856Z,1008.81
2022-10-03T09:59:59.788Z,1008.80
2022-10-03T10:01:00.772Z,1008.78
2022-10-03T10:01:59.799Z,1008.82
2022-10-03T10:02:59.788Z,1008.73
2022-10-03T10:03:59.786Z,1008.78
2022-10-03T10:04:59.782Z,1008.82
2022-10-03T10:05:59.751Z,1008.82
2022-10-03T10:06:59.712Z,1008.85
2022-10-03T10:07:59.701Z,1008.83
2022-10-03T10:08:59.712Z,1008.74
2022-10-03T10:09:59.712Z,1008.76
2022-10-03T10:10:59.663Z,1008.85
2022-10-03T10:11:59.653Z,1008.79
2022-10-03T10:12:59.691Z,1008.76
2022-10-03T10:14:08.006Z,1008.80
2022-10-03T10:15:00.634Z,1008.74
2022-10-03T10:15:59.647Z,1008.76
2022-10-03T10:16:59.611Z,1008.73
2022-10-03T10:17:59.599Z,1008.77
2022-10-03T10:18:59.580Z,1008.76
2022-10-03T10:19:59.586Z,1008.78
2022-10-03T10:20:59.543Z,1008.73
2022-10-03T10:21:59.554Z,1008.72
2022-10-03T10:22:59.568Z,1008.73
2022-10-03T10:23:59.515Z,1008.67
2022-10-03T10:24:59.495Z,1008.74
2022-10-03T10:25:59.522Z,1008.67
2022-10-03T10:26:59.517Z,1008.64
2022-10-03T10:27:59.511Z,1008.69
2022-10-03T10:28:59.467Z,1008.65
2022-10-03T10:29:59.438Z,1008.60
2022-10-03T10:30:59.511Z,1008.66
2022-10-03T10:31:59.465Z,1008.59
2022-10-03T10:32:59.396Z,1008.62
2022-10-03T10:33:59.400Z,1008.59
2022-10-03T10:34:59.371Z,1008.62
2022-10-03T10:35:59.387Z,1008.62
2022-10-03T10:36:59.347Z,1008.64
2022-10-03T10:37:59.398Z,1008.64
2022-10-03T10:38:59.327Z,1008.62
2022-10-03T10:39:59.317Z,1008.68
2022-10-03T10:40:59.832Z,1008.62
2022-10-03T10:41:59.300Z,1008.60
2022-10-03T10:42:59.279Z,1008.63
2022-10-03T10:44:00.512Z,1008.66
2022-10-03T10:44:59.290Z,1008.63
2022-10-03T10:45:59.298Z,1008.54
2022-10-03T10:46:59.276Z,1008.58
2022-10-03T10:47:59.238Z,1008.55
2022-10-03T10:49:03.652Z,1008.52
2022-10-03T10:49:59.239Z,1008.63
2022-10-03T10:50:59.201Z,1008.57
2022-10-03T10:51:59.175Z,1008.55
2022-10-03T10:52:59.161Z,1008.56
2022-10-03T10:53:59.163Z,1008.51
2022-10-03T10:54:59.143Z,1008.57
2022-10-03T10:55:59.181Z,1008.52
2022-10-03T10:56:59.118Z,1008.51
2022-10-03T10:57:59.112Z,1008.53
2022-10-03T10:58:59.092Z,1008.58
2022-10-03T10:59:59.093Z,1008.60
2022-10-03T11:00:59.247Z,1008.56
2022-10-03T11:01:59.085Z,1008.58
2022-10-03T11:02:59.063Z,1008.59
2022-10-03T11:03:59.043Z,1008.62
2022-10-03T11:04:59.065Z,1008.58
2022-10-03T11:05:59.016Z,1008.59
2022-10-03T11:06:59.026Z,1008.54
2022-10-03T11:07:59.051Z,1008.55
2022-10-03T11:08:58.984Z,1008.54
2022-10-03T11:09:58.987Z,1008.56
2022-10-03T11:10:58.966Z,1008.54
2022-10-03T11:11:58.955Z,1008.53
2022-10-03T11:12:58.951Z,1008.55
2022-10-03T11:13:58.957Z,1008.55
2022-10-03T11:14:58.906Z,1008.51
2022-10-03T11:15:58.930Z,1008.51
2022-10-03T11:16:58.895Z,1008.52
2022-10-03T11:17:58.868Z,1008.54
2022-10-03T11:18:58.881Z,1008.53
2022-10-03T11:19:58.908Z,1008.52
2022-10-03T11:20:58.848Z,1008.50
2022-10-03T11:21:58.829Z,1008.48
2022-10-03T11:23:03.767Z,1008.43
2022-10-03T11:23:59.864Z,1008.45
2022-10-03T11:24:58.810Z,1008.46
2022-10-03T11:25:58.856Z,1008.46
2022-10-03T11:26:58.790Z,1008.45
2022-10-03T11:27:58.834Z,1008.47
2022-10-03T11:28:58.795Z,1008.43
2022-10-03T11:29:58.756Z,1008.42
2022-10-03T11:30:58.751Z,1008.38
2022-10-03T11:31:58.732Z,1008.34
2022-10-03T11:32:58.720Z,1008.40
2022-10-03T11:33:58.721Z,1008.40
2022-10-03T11:34:58.708Z,1008.37
2022-10-03T11:35:58.673Z,1008.42
2022-10-03T11:36:58.731Z,1008.36
2022-10-03T11:37:58.691Z,1008.32
2022-10-03T11:38:58.652Z,1008.29
2022-10-03T11:39:58.642Z,1008.32
2022-10-03T11:40:58.643Z,1008.26
2022-10-03T11:41:58.604Z,1008.31
2022-10-03T11:42:58.684Z,1008.30
2022-10-03T11:44:01.858Z,1008.32
2022-10-03T11:44:58.590Z,1008.34
2022-10-03T11:45:58.635Z,1008.28
2022-10-03T11:46:58.554Z,1008.27
2022-10-03T11:47:58.542Z,1008.26
2022-10-03T11:48:58.569Z,1008.22
2022-10-03T11:49:58.506Z,1008.31
2022-10-03T11:50:58.501Z,1008.27
2022-10-03T11:51:58.479Z,1008.30
2022-10-03T11:52:58.466Z,1008.25
2022-10-03T11:54:13.263Z,1008.26
2022-10-03T11:54:59.505Z,1008.23
2022-10-03T11:55:58.465Z,1008.23
2022-10-03T11:56:58.440Z,1008.32
2022-10-03T11:57:58.431Z,1008.24
2022-10-03T11:58:58.407Z,1008.28
2022-10-03T11:59:58.470Z,1008.28
2022-10-03T12:00:58.404Z,1008.25
2022-10-03T12:01:58.452Z,1008.23
2022-10-03T12:02:58.392Z,1008.23
2022-10-03T12:03:58.348Z,1008.22
2022-10-03T12:04:58.353Z,1008.21